Time;durP1;ratioP1;P1;durP2;ratioP2;P2;SDS_P1;SDS_P2;PMS_P1;PMS_P2;Temp;Humidity;BMP_temperature;BMP_pressure;BME280_temperature;BME280_humidity;BME280_pressure;Samples;Min_cycle;Max_cycle;Signal;HPM_P1;HPM_P2
2022/01/04 00:00:26;;;;;;;5.05;4.07;;;;;;;14.92;51.05;101338.50;144992;592;6002;-88
2022/01/04 00:02:53;;;;;;;5.25;4.75;;;;;;;14.94;50.93;101344.63;144992;566;6002;-90
2022/01/04 00:05:19;;;;;;;9.38;6.85;;;;;;;14.98;50.68;101353.41;144992;754;6002;-88
2022/01/04 00:07:46;;;;;;;8.63;7.47;;;;;;;14.95;50.47;101358.56;144992;583;6002;-88
2022/01/04 00:10:19;;;;;;;9.70;7.45;;;;;;;15.00;50.59;101359.53;144992;618;6002;-87
2022/01/04 00:15:30;;;;;;;10.38;8.20;;;;;;;15.03;50.27;101378.81;144992;578;6004;-88
2022/01/04 00:17:57;;;;;;;9.98;8.52;;;;;;;15.02;50.08;101381.41;144992;572;6004;-89
2022/01/04 00:20:24;;;;;;;10.05;7.93;;;;;;;15.02;50.00;101376.16;144992;603;6004;-90
2022/01/04 00:22:50;;;;;;;10.60;8.07;;;;;;;15.03;50.00;101372.69;144991;737;6000;-89
2022/01/04 00:25:16;;;;;;;9.50;8.32;;;;;;;15.04;50.11;101377.06;144992;590;6003;-87
2022/01/04 00:27:43;;;;;;;9.45;7.40;;;;;;;15.03;49.87;101364.84;144992;673;6002;-87
2022/01/04 00:30:11;;;;;;;8.75;7.10;;;;;;;15.00;50.14;101359.53;144992;574;6002;-87
2022/01/04 00:32:37;;;;;;;7.45;6.53;;;;;;;14.94;50.13;101364.66;144992;589;6003;-87
2022/01/04 00:35:05;;;;;;;8.25;6.57;;;;;;;14.83;50.00;101364.41;144992;753;6002;-86
2022/01/04 00:37:31;;;;;;;7.65;6.53;;;;;;;14.72;50.31;101366.78;144992;628;6006;-86
2022/01/04 00:39:59;;;;;;;8.48;7.47;;;;;;;14.70;50.52;101376.31;144992;812;6002;-86
2022/01/04 00:42:26;;;;;;;7.60;6.75;;;;;;;14.68;50.46;101380.59;144992;576;6002;-85
2022/01/04 00:44:52;;;;;;;9.27;7.25;;;;;;;14.68;50.35;101380.59;144992;569;6002;-89
2022/01/04 00:47:25;;;;;;;8.70;7.45;;;;;;;14.63;50.47;101384.84;144992;567;6002;-88
2022/01/04 00:49:52;;;;;;;9.52;7.43;;;;;;;14.64;50.67;101397.06;144992;565;6002;-88
2022/01/04 00:52:18;;;;;;;9.75;7.78;;;;;;;14.64;50.63;101399.69;144992;800;6002;-89
2022/01/04 00:54:46;;;;;;;11.88;7.60;;;;;;;14.64;50.99;101395.34;144992;617;6002;-87
2022/01/04 00:57:12;;;;;;;9.73;7.35;;;;;;;14.64;50.35;101397.06;144992;629;6002;-86
2022/01/04 00:59:39;;;;;;;9.50;7.05;;;;;;;14.63;50.79;101387.47;144992;606;6002;-89
2022/01/04 01:02:16;;;;;;;9.18;7.65;;;;;;;14.64;50.84;101391.84;144992;774;6002;-89
2022/01/04 01:04:43;;;;;;;10.45;7.97;;;;;;;14.68;50.73;101393.66;144992;652;6002;-90
2022/01/04 01:07:09;;;;;;;10.15;8.25;;;;;;;14.71;50.87;101385.03;144992;757;6002;-82
2022/01/04 01:09:44;;;;;;;9.93;8.18;;;;;;;14.72;50.79;101382.47;144992;634;6002;-86
2022/01/04 01:12:11;;;;;;;;;;;;;;;14.69;50.65;101378.03;144997;912;6002;-90
2022/01/04 01:14:37;;;;;;;11.27;8.30;;;;;;;14.69;50.44;101380.66;144997;585;6002;-90
2022/01/04 01:17:04;;;;;;;13.07;8.30;;;;;;;14.70;50.66;101378.94;144992;765;6002;-89
2022/01/04 01:19:41;;;;;;;11.02;7.75;;;;;;;14.72;50.82;101387.69;144992;598;6002;-86
2022/01/04 01:22:09;;;;;;;10.77;7.75;;;;;;;14.76;50.70;101386.03;144992;597;6002;-91
2022/01/04 01:24:36;;;;;;;10.75;8.43;;;;;;;14.79;50.28;101373.03;144992;765;6003;-89
2022/01/04 01:27:03;;;;;;;9.02;7.40;;;;;;;14.80;50.12;101380.91;144992;626;6011;-90
2022/01/04 01:29:30;;;;;;;10.95;7.82;;;;;;;14.82;50.51;101373.97;144992;715;6002;-90
2022/01/04 01:31:56;;;;;;;10.55;8.20;;;;;;;14.83;50.48;101370.53;144992;564;6002;-89
2022/01/04 01:34:24;;;;;;;8.52;7.60;;;;;;;14.85;50.23;101373.16;144992;692;6002;-90
2022/01/04 01:36:51;;;;;;;9.30;7.32;;;;;;;14.86;50.04;101361.88;144992;563;6002;-89
2022/01/04 01:39:19;;;;;;;9.23;7.80;;;;;;;14.86;49.95;101357.53;144992;614;6002;-89
2022/01/04 01:41:45;;;;;;;9.52;7.95;;;;;;;14.85;50.02;101357.47;144992;649;6002;-90
2022/01/04 01:44:12;;;;;;;10.77;7.78;;;;;;;14.86;50.63;101360.13;144992;679;6002;-91
2022/01/04 01:46:38;;;;;;;9.27;7.95;;;;;;;14.87;49.84;101358.38;144992;577;6002;-89
2022/01/04 01:49:05;;;;;;;8.43;7.40;;;;;;;14.86;50.42;101352.28;144992;751;6002;-88
2022/01/04 01:51:31;;;;;;;9.50;7.00;;;;;;;14.83;50.42;101349.59;144992;801;6002;-88
2022/01/04 01:53:59;;;;;;;10.68;7.90;;;;;;;14.82;50.49;101350.44;144992;761;6002;-90
2022/01/04 01:56:26;;;;;;;8.63;7.00;;;;;;;14.79;50.49;101358.22;144992;781;6002;-90
2022/01/04 01:58:55;;;;;;;11.63;7.60;;;;;;;14.77;50.60;101365.16;144992;612;6002;-88
2022/01/04 02:01:22;;;;;;;8.35;7.32;;;;;;;14.76;50.95;101375.56;144992;613;6002;-88
2022/01/04 02:03:49;;;;;;;9.60;7.30;;;;;;;14.75;50.54;101371.22;144992;736;6002;-88
2022/01/04 02:06:17;;;;;;;8.95;7.15;;;;;;;14.74;50.69;101377.28;144992;577;6002;-87
2022/01/04 02:08:43;;;;;;;7.18;6.00;;;;;;;14.73;50.66;101375.50;144991;587;6003;-88
2022/01/04 02:11:12;;;;;;;8.82;5.70;;;;;;;14.72;50.41;101363.28;144992;590;6002;-90
2022/01/04 02:13:39;;;;;;;6.80;5.72;;;;;;;14.70;50.13;101360.66;144992;569;6002;-88
2022/01/04 02:16:10;;;;;;;7.45;5.32;;;;;;;14.67;50.48;101358.84;144993;570;6002;-89
2022/01/04 02:18:37;;;;;;;7.05;5.50;;;;;;;14.68;49.82;101351.87;144993;570;6002;-88
2022/01/04 02:21:04;;;;;;;7.00;5.32;;;;;;;14.66;50.64;101350.94;144993;566;6002;-88
2022/01/04 02:23:33;;;;;;;6.95;5.37;;;;;;;14.65;50.03;101349.19;144993;606;6002;-88
2022/01/04 02:26:02;;;;;;;7.30;6.18;;;;;;;14.65;50.40;101349.19;144993;632;6002;-90
2022/01/04 02:28:30;;;;;;;9.73;7.50;;;;;;;14.64;50.30;101350.91;144993;720;6002;-89
2022/01/04 02:30:57;;;;;;;11.02;8.55;;;;;;;14.63;50.14;101350.88;144993;563;6002;-91
2022/01/04 02:33:23;;;;;;;10.73;8.80;;;;;;;14.63;49.91;101350.88;144993;618;6002;-90
2022/01/04 02:35:50;;;;;;;11.35;9.60;;;;;;;14.62;50.51;101354.31;144993;594;6002;-90
2022/01/04 02:38:16;;;;;;;13.27;10.25;;;;;;;14.63;50.38;101359.59;144993;563;6002;-90
2022/01/04 02:40:44;;;;;;;10.68;9.00;;;;;;;14.60;50.41;101364.78;144993;744;6002;-90
2022/01/04 02:43:11;;;;;;;11.40;8.90;;;;;;;14.60;50.63;101370.00;144993;591;6002;-89
2022/01/04 02:45:37;;;;;;;10.88;8.40;;;;;;;14.60;50.53;101361.25;144993;595;6002;-90
2022/01/04 02:48:04;;;;;;;9.50;7.62;;;;;;;14.60;50.63;101363.88;144992;581;6002;-90
2022/01/04 02:50:43;;;;;;;10.05;7.82;;;;;;;14.61;50.46;101374.34;144992;617;6002;-83
2022/01/04 02:53:12;;;;;;;8.70;7.32;;;;;;;14.63;50.47;101374.41;144992;626;6003;-88
2022/01/04 02:55:39;;;;;;;9.43;7.40;;;;;;;14.64;50.02;101374.44;144992;732;6002;-88
2022/01/04 02:58:06;;;;;;;9.30;7.03;;;;;;;14.63;50.49;101382.25;144992;570;6002;-89
2022/01/04 03:00:32;;;;;;;8.52;6.70;;;;;;;14.62;50.16;101376.13;144992;625;6002;-89
2022/01/04 03:02:59;;;;;;;7.65;6.28;;;;;;;14.60;50.24;101393.53;144993;799;6002;-90
2022/01/04 03:05:26;;;;;;;8.63;6.10;;;;;;;14.60;50.03;101387.38;144993;768;6002;-91
2022/01/04 03:07:52;;;;;;;9.93;6.65;;;;;;;14.60;50.51;101393.53;144993;617;6002;-90
2022/01/04 03:10:19;;;;;;;8.77;6.68;;;;;;;14.59;49.98;101388.22;144993;570;6002;-90
2022/01/04 03:12:45;;;;;;;6.62;5.90;;;;;;;14.58;50.10;101389.06;144993;793;6002;-90
2022/01/04 03:15:13;;;;;;;7.47;5.75;;;;;;;14.57;50.46;101392.50;144993;575;6002;-90
2022/01/04 03:17:41;;;;;;;6.53;5.53;;;;;;;14.53;50.33;101399.37;144993;703;6002;-89
2022/01/04 03:20:08;;;;;;;7.18;5.78;;;;;;;14.52;50.29;101397.62;144993;570;6002;-89
2022/01/04 03:22:35;;;;;;;7.18;6.00;;;;;;;14.49;50.53;101398.44;144993;688;6002;-87
2022/01/04 03:25:01;;;;;;;6.32;5.22;;;;;;;14.49;50.17;101397.53;144993;708;6002;-91
2022/01/04 03:27:29;;;;;;;6.10;5.50;;;;;;;14.39;50.83;101392.94;144993;602;6002;-89
2022/01/04 03:29:56;;;;;;;7.65;5.62;;;;;;;14.40;50.86;101397.34;144993;574;6002;-90
2022/01/04 03:32:22;;;;;;;6.25;5.55;;;;;;;14.42;51.12;101396.50;144993;777;6002;-91
2022/01/04 03:34:49;;;;;;;7.22;5.40;;;;;;;14.44;50.81;101396.56;144993;601;6002;-89
2022/01/04 03:37:16;;;;;;;7.55;5.95;;;;;;;14.44;50.96;101399.16;144993;589;6002;-88
2022/01/04 03:39:43;;;;;;;7.65;5.85;;;;;;;14.41;50.74;101402.59;144993;621;6002;-90
2022/01/04 03:42:09;;;;;;;6.07;4.97;;;;;;;14.43;51.25;101400.91;144993;587;6002;-88
2022/01/04 03:44:36;;;;;;;6.15;5.47;;;;;;;14.45;50.80;101406.16;144993;564;6002;-91
2022/01/04 03:47:03;;;;;;;6.07;5.00;;;;;;;14.39;51.00;101403.41;144993;591;6002;-89
2022/01/04 03:49:29;;;;;;;7.07;4.93;;;;;;;14.39;50.94;101406.00;144993;580;6002;-86
2022/01/04 03:51:56;;;;;;;6.70;5.25;;;;;;;14.37;50.55;101410.31;144993;588;6002;-90
2022/01/04 03:54:22;;;;;;;6.70;5.18;;;;;;;14.37;50.66;101400.75;144994;595;5002;-91
2022/01/04 03:56:50;;;;;;;5.60;5.07;;;;;;;14.37;50.48;101402.47;144994;592;5002;-88
2022/01/04 03:59:17;;;;;;;5.85;5.20;;;;;;;14.37;51.14;101411.19;144994;599;5002;-89
2022/01/04 04:01:43;;;;;;;5.93;5.20;;;;;;;14.35;50.96;101402.44;144994;570;5002;-89
2022/01/04 04:04:09;;;;;;;7.28;5.40;;;;;;;14.37;50.89;101405.97;144994;620;5002;-90
2022/01/04 04:06:36;;;;;;;8.93;5.00;;;;;;;14.36;50.85;101409.41;144994;564;5002;-88
2022/01/04 04:09:04;;;;;;;6.72;4.68;;;;;;;14.21;51.34;101412.53;144994;573;5002;-90
2022/01/04 04:11:31;;;;;;;5.15;4.40;;;;;;;14.29;50.84;101408.38;144994;564;5002;-89
2022/01/04 04:13:58;;;;;;;6.15;4.90;;;;;;;14.32;50.84;101415.41;144994;563;5002;-89
2022/01/04 04:16:24;;;;;;;6.20;5.47;;;;;;;14.35;50.55;101407.66;144994;564;5002;-89
2022/01/04 04:18:51;;;;;;;6.43;5.47;;;;;;;14.34;50.63;101405.88;144994;566;5002;-89
2022/01/04 04:21:18;;;;;;;6.53;5.50;;;;;;;14.32;50.57;101398.00;144994;616;5002;-88
2022/01/04 04:23:44;;;;;;;7.65;5.40;;;;;;;14.33;50.83;101399.78;144993;679;5002;-89
2022/01/04 04:26:11;;;;;;;6.37;5.43;;;;;;;14.33;50.67;101406.72;144994;611;5002;-89
2022/01/04 04:28:37;;;;;;;6.57;5.45;;;;;;;14.32;50.59;101408.47;144994;587;5002;-88
2022/01/04 04:31:05;;;;;;;6.30;5.43;;;;;;;14.30;50.47;101409.25;144994;564;5002;-88
2022/01/04 04:33:32;;;;;;;6.82;5.90;;;;;;;14.28;50.32;101408.34;144994;645;5002;-90
2022/01/04 04:35:59;;;;;;;6.07;5.32;;;;;;;14.29;50.64;101421.44;144994;588;5002;-88
2022/01/04 04:38:29;;;;;;;6.78;5.35;;;;;;;14.27;50.58;101425.75;144994;564;5002;-86
2022/01/04 04:41:05;;;;;;;6.87;5.68;;;;;;;14.28;50.68;101419.66;144994;806;5002;-85
2022/01/04 04:43:34;;;;;;;6.55;5.85;;;;;;;14.27;50.24;101427.44;144994;569;5002;-88
2022/01/04 04:46:01;;;;;;;6.80;5.95;;;;;;;14.26;50.22;101425.72;144994;635;5002;-88
2022/01/04 04:48:28;;;;;;;6.53;5.82;;;;;;;14.24;50.24;101428.28;144994;610;5002;-87
2022/01/04 04:50:56;;;;;;;10.07;6.53;;;;;;;14.24;50.45;101428.28;144994;598;5002;-89
2022/01/04 04:53:25;;;;;;;7.47;6.68;;;;;;;14.21;50.76;101422.09;144994;564;5002;-88
2022/01/04 04:55:53;;;;;;;8.30;6.30;;;;;;;14.19;50.44;101432.50;144994;566;5002;-90
2022/01/04 04:58:32;;;;;;;9.88;7.15;;;;;;;14.18;50.40;101435.94;144994;708;5002;-88
2022/01/04 05:01:16;;;;;;;8.57;7.00;;;;;;;14.19;50.93;101439.44;144994;647;5002;-85
2022/01/04 05:04:07;;;;;;;9.70;7.43;;;;;;;14.18;50.94;101445.50;144994;578;5002;-85
2022/01/04 05:06:43;;;;;;;10.10;7.50;;;;;;;14.20;50.58;101444.69;144993;620;6002;-82
2022/01/04 05:09:31;;;;;;;8.65;7.03;;;;;;;14.21;50.73;101443.00;144994;578;5002;-90
2022/01/04 05:12:16;;;;;;;8.30;7.30;;;;;;;14.23;50.95;101444.78;144994;599;5002;-88
2022/01/04 05:14:46;;;;;;;9.98;7.10;;;;;;;14.24;50.46;101451.78;144994;590;5002;-88
2022/01/04 05:17:13;;;;;;;10.00;6.95;;;;;;;14.20;50.89;101457.75;144994;695;5002;-88
2022/01/04 05:19:40;;;;;;;9.25;6.82;;;;;;;14.17;50.84;101467.25;144993;583;5002;-87
2022/01/04 05:22:07;;;;;;;8.30;6.90;;;;;;;14.14;50.67;101470.63;144994;585;5002;-89
2022/01/04 05:24:46;;;;;;;11.48;7.50;;;;;;;14.13;50.80;101474.13;144994;622;5002;-85
2022/01/04 05:27:13;;;;;;;11.95;7.43;;;;;;;14.12;50.96;101464.50;144994;571;5002;-89
2022/01/04 05:29:41;;;;;;;11.12;8.13;;;;;;;14.10;50.79;101461.84;144994;669;5002;-89
2022/01/04 05:32:08;;;;;;;10.13;8.10;;;;;;;14.11;51.14;101465.34;144994;594;5013;-88
2022/01/04 05:34:36;;;;;;;10.48;7.87;;;;;;;14.11;50.78;101470.56;144994;575;5002;-88
2022/01/04 05:37:05;;;;;;;12.18;8.15;;;;;;;14.08;50.77;101468.75;144994;733;5002;-89
2022/01/04 05:39:31;;;;;;;10.82;8.68;;;;;;;14.05;50.79;101478.25;144994;621;5002;-89
2022/01/04 05:41:57;;;;;;;12.88;9.45;;;;;;;14.03;51.25;101472.06;144994;566;5002;-91
2022/01/04 05:44:24;;;;;;;13.57;9.32;;;;;;;13.99;51.29;101478.94;144994;595;5002;-88
2022/01/04 05:46:51;;;;;;;14.70;10.30;;;;;;;13.97;51.22;101472.81;144994;599;5002;-90
2022/01/04 05:49:19;;;;;;;11.23;9.32;;;;;;;13.97;51.34;101488.47;144994;714;5002;-90
2022/01/04 05:51:46;;;;;;;13.30;9.30;;;;;;;13.97;50.97;101485.84;144994;619;5002;-89
2022/01/04 05:54:13;;;;;;;11.23;8.55;;;;;;;13.97;51.51;101486.72;144994;606;5002;-89
2022/01/04 05:56:40;;;;;;;10.25;7.82;;;;;;;13.96;51.46;101494.53;144994;634;5002;-89
2022/01/04 05:59:07;;;;;;;11.98;8.65;;;;;;;13.97;51.19;101499.78;144994;678;5002;-89
2022/01/04 06:01:34;;;;;;;10.15;8.20;;;;;;;13.98;50.88;101503.28;144994;635;5002;-89
2022/01/04 06:04:00;;;;;;;9.30;7.68;;;;;;;13.99;51.21;101491.13;144994;575;5002;-89
2022/01/04 06:06:28;;;;;;;9.48;7.80;;;;;;;14.00;51.07;101504.22;144994;625;5002;-90
2022/01/04 06:08:55;;;;;;;8.57;7.30;;;;;;;14.02;50.88;101506.88;144994;629;5002;-91
2022/01/04 06:16:53;;;;;;;7.57;5.55;;;;;;;14.10;50.81;101501.00;144994;595;5002;-90
2022/01/04 06:19:19;;;;;;;13.88;5.20;;;;;;;14.31;50.73;101503.31;144994;619;5002;-92
2022/01/04 06:21:46;;;;;;;6.55;4.82;;;;;;;14.66;49.69;101503.38;144994;565;5002;-90
2022/01/04 06:24:12;;;;;;;11.07;5.30;;;;;;;15.10;49.50;101494.00;144994;613;5002;-91
2022/01/04 06:26:53;;;;;;;8.35;5.30;;;;;;;15.60;48.35;101492.53;144994;697;5002;-86
2022/01/04 06:29:29;;;;;;;6.00;4.68;;;;;;;16.16;47.86;101491.03;144994;591;5002;-85
2022/01/04 06:31:55;;;;;;;6.05;5.15;;;;;;;16.65;46.60;101499.78;144994;623;5002;-89
2022/01/04 06:34:22;;;;;;;7.28;4.90;;;;;;;17.21;46.18;101493.75;144994;759;5002;-91
2022/01/04 06:36:49;;;;;;;7.93;5.10;;;;;;;17.79;45.21;101490.13;144994;592;5002;-92
2022/01/04 06:39:16;;;;;;;9.93;6.57;;;;;;;18.33;44.31;101500.41;144994;596;5002;-92
2022/01/04 06:41:43;;;;;;;12.60;8.35;;;;;;;18.71;43.23;101494.59;144994;576;5002;-90
2022/01/04 06:44:10;;;;;;;12.37;8.80;;;;;;;18.91;43.09;101493.03;144994;576;5002;-93
2022/01/04 06:46:38;;;;;;;10.50;8.25;;;;;;;19.08;43.16;101493.19;144994;570;5002;-92
2022/01/04 06:49:07;;;;;;;13.90;8.63;;;;;;;19.20;43.00;101495.91;144994;585;5002;-86
2022/01/04 06:51:34;;;;;;;10.73;8.00;;;;;;;19.27;42.64;101502.06;144994;707;5002;-92
2022/01/04 06:54:01;;;;;;;9.82;8.10;;;;;;;19.32;42.88;101502.97;144994;564;5002;-90
2022/01/04 06:56:28;;;;;;;9.45;6.87;;;;;;;19.39;42.76;101501.25;144994;619;5002;-90
2022/01/04 06:58:54;;;;;;;9.88;6.78;;;;;;;19.57;42.71;101504.00;144994;576;5002;-91
2022/01/04 07:01:21;;;;;;;9.55;6.00;;;;;;;19.76;42.37;101509.41;144994;597;5002;-93
2022/01/04 07:03:49;;;;;;;9.27;6.57;;;;;;;20.00;42.13;101515.66;144994;667;5002;-93
2022/01/04 07:06:15;;;;;;;11.75;6.72;;;;;;;20.21;41.44;101518.31;144994;565;5002;-92
2022/01/04 07:08:42;;;;;;;8.60;6.75;;;;;;;20.40;41.48;101521.00;144994;575;5002;-91
2022/01/04 07:11:08;;;;;;;8.18;7.07;;;;;;;20.51;41.11;101529.81;144994;633;5002;-92
2022/01/04 07:13:35;;;;;;;11.45;8.88;;;;;;;20.64;40.68;101528.09;144994;600;5002;-91
2022/01/04 07:16:05;;;;;;;11.85;8.60;;;;;;;20.74;41.03;101529.00;144993;567;5002;-89
2022/01/04 07:18:31;;;;;;;11.93;8.95;;;;;;;20.90;41.01;101532.50;144994;580;5002;-89
2022/01/04 07:20:58;;;;;;;13.10;9.65;;;;;;;21.00;40.68;101532.50;144994;610;5002;-88
2022/01/04 07:23:26;;;;;;;11.65;9.70;;;;;;;21.10;40.41;101532.50;144994;572;5002;-92
2022/01/04 07:25:53;;;;;;;10.57;9.20;;;;;;;21.25;40.14;101544.81;144994;595;5002;-92
2022/01/04 07:28:19;;;;;;;9.68;8.05;;;;;;;21.36;39.47;101538.66;144994;575;5002;-91
2022/01/04 07:30:46;;;;;;;8.68;7.78;;;;;;;21.40;39.79;101538.63;144994;615;5002;-89
2022/01/04 07:33:12;;;;;;;10.60;8.05;;;;;;;21.47;39.37;101545.66;144994;569;5002;-91
2022/01/04 07:35:39;;;;;;;10.73;8.20;;;;;;;21.55;39.54;101549.19;144994;602;5002;-91
2022/01/04 07:38:05;;;;;;;8.80;7.30;;;;;;;21.59;38.94;101547.41;144994;614;5002;-93
2022/01/04 07:40:32;;;;;;;8.02;7.03;;;;;;;21.69;38.51;101547.38;144994;564;5002;-89
2022/01/04 07:43:00;;;;;;;8.20;7.20;;;;;;;21.72;38.50;101547.38;144994;638;5002;-91
2022/01/04 07:45:28;;;;;;;9.73;7.10;;;;;;;21.78;38.47;101549.13;144994;600;5002;-93
2022/01/04 07:47:55;;;;;;;9.73;7.53;;;;;;;21.85;38.18;101545.56;144994;597;5002;-91
2022/01/04 07:50:23;;;;;;;9.15;6.55;;;;;;;21.88;38.48;101556.13;144994;575;5002;-91
2022/01/04 07:52:50;;;;;;;8.80;7.00;;;;;;;21.93;38.04;101556.09;144994;646;5002;-92
2022/01/04 07:55:18;;;;;;;9.40;6.78;;;;;;;21.99;38.17;101557.84;144994;563;5002;-90
2022/01/04 07:57:45;;;;;;;9.20;7.12;;;;;;;22.05;37.96;101556.06;144994;594;5002;-90
2022/01/04 08:00:13;;;;;;;9.60;6.85;;;;;;;22.14;37.68;101557.75;144994;570;5002;-89
2022/01/04 08:02:43;;;;;;;7.43;6.22;;;;;;;22.20;38.05;101559.50;144994;563;5002;-91
2022/01/04 08:05:12;;;;;;;6.75;5.72;;;;;;;22.28;37.49;101552.41;144994;621;5002;-87
2022/01/04 08:07:40;;;;;;;8.38;6.65;;;;;;;22.39;37.28;101545.31;144994;613;5002;-89
2022/01/04 08:10:07;;;;;;;9.90;6.18;;;;;;;22.41;37.25;101540.03;144994;569;5002;-92
2022/01/04 08:12:36;;;;;;;8.98;6.62;;;;;;;22.51;37.62;101544.38;144994;648;5002;-91
2022/01/04 08:15:15;;;;;;;9.98;7.03;;;;;;;22.61;37.54;101545.19;144994;687;5002;-83
2022/01/04 08:17:46;;;;;;;11.85;6.82;;;;;;;22.80;36.79;101545.94;144994;608;5002;-90
2022/01/04 08:20:12;;;;;;;10.88;7.82;;;;;;;22.88;36.26;101538.81;144994;597;5002;-90
2022/01/04 08:22:39;;;;;;;9.43;7.45;;;;;;;22.95;36.92;101539.63;144993;602;5002;-90
2022/01/04 08:25:11;;;;;;;8.40;6.40;;;;;;;23.04;35.98;101534.25;144994;598;5002;-91
2022/01/04 08:27:38;;;;;;;8.15;6.10;;;;;;;23.14;36.32;101540.38;144994;602;5002;-91
2022/01/04 08:30:10;;;;;;;7.78;5.70;;;;;;;23.20;35.76;101537.66;144994;581;4567;-91
2022/01/04 08:32:38;;;;;;;10.93;6.57;;;;;;;23.23;35.88;101536.78;144994;594;4572;-92
2022/01/04 08:35:07;;;;;;;8.55;6.97;;;;;;;23.29;35.91;101532.28;144992;575;6002;-93
2022/01/04 08:37:34;;;;;;;10.90;6.70;;;;;;;23.34;35.32;101521.66;144992;575;6002;-93
2022/01/04 08:40:04;;;;;;;6.82;4.93;;;;;;;23.42;35.48;101525.09;144992;594;6002;-91
2022/01/04 08:42:31;;;;;;;6.75;5.55;;;;;;;23.49;35.44;101524.09;144992;590;6002;-92
2022/01/04 08:44:58;;;;;;;10.10;5.57;;;;;;;23.51;35.16;101519.69;144992;587;6002;-90
2022/01/04 08:47:26;;;;;;;9.68;5.55;;;;;;;23.57;34.84;101515.22;144992;577;6002;-88
2022/01/04 08:49:53;;;;;;;8.50;5.40;;;;;;;23.60;34.75;101516.03;144992;586;6002;-91
2022/01/04 08:52:34;;;;;;;35.03;13.45;;;;;;;23.62;34.81;101514.25;144992;579;6002;-83
2022/01/04 08:55:18;;;;;;;75.30;32.30;;;;;;;23.65;34.50;101511.56;144992;600;6002;-86
2022/01/04 08:57:58;;;;;;;84.85;44.35;;;;;;;23.64;34.78;101509.81;144992;640;6002;-88
2022/01/04 09:00:25;;;;;;;143.00;72.18;;;;;;;23.55;34.47;101510.78;144992;572;6002;-91
2022/01/04 09:02:52;;;;;;;141.95;89.30;;;;;;;23.43;35.42;101510.06;144992;573;6002;-89
2022/01/04 09:05:19;;;;;;;107.87;69.62;;;;;;;23.38;35.53;101517.19;144992;618;6002;-91
2022/01/04 09:07:50;;;;;;;51.92;38.45;;;;;;;23.31;35.88;101514.59;144992;580;6002;-92
2022/01/04 09:10:16;;;;;;;58.65;41.67;;;;;;;23.31;36.01;101514.59;144992;582;6002;-90
2022/01/04 09:13:01;;;;;;;33.75;24.02;;;;;;;23.27;35.80;101507.56;144992;595;6002;-90
2022/01/04 09:15:34;;;;;;;;;;;;;;;23.27;35.42;101510.22;144997;911;6002;-90
2022/01/04 09:20:48;;;;;;;17.55;14.13;;;;;;;23.18;36.45;101505.03;144992;576;6013;-88
2022/01/04 09:23:20;;;;;;;13.13;11.12;;;;;;;23.15;36.10;101505.94;144992;583;6004;-89
2022/01/04 09:25:48;;;;;;;12.18;9.05;;;;;;;23.21;36.50;101496.16;144992;579;6004;-89
2022/01/04 09:28:16;;;;;;;9.57;8.32;;;;;;;22.95;36.24;101487.53;144992;572;6004;-90
2022/01/04 09:30:45;;;;;;;9.20;5.70;;;;;;;22.54;36.56;101493.19;144992;574;6004;-85
2022/01/04 09:33:12;;;;;;;7.87;5.05;;;;;;;22.74;36.01;101488.63;144992;586;6004;-89
2022/01/04 09:35:58;;;;;;;5.25;4.18;;;;;;;22.84;35.90;101484.13;144992;580;6005;-91
2022/01/04 09:38:37;;;;;;;9.48;4.75;;;;;;;22.90;36.05;101480.56;144992;567;6004;-91
2022/01/04 09:41:03;;;;;;;8.40;6.22;;;;;;;22.97;36.23;101480.47;144992;588;6004;-92
2022/01/04 09:43:31;;;;;;;8.57;7.43;;;;;;;23.09;35.81;101478.63;144992;611;6004;-92
2022/01/04 09:46:03;;;;;;;11.75;9.10;;;;;;;23.12;36.12;101471.53;144992;653;6004;-87
2022/01/04 09:48:34;;;;;;;11.85;9.02;;;;;;;23.07;36.20;101461.88;144991;631;6000;-92
2022/01/04 09:51:04;;;;;;;9.18;7.25;;;;;;;23.10;36.35;101465.38;144992;566;6002;-91
2022/01/04 09:54:00;;;;;;;11.32;9.65;;;;;;;23.18;36.12;101450.28;144992;579;6002;-83
2022/01/04 09:57:06;;;;;;;12.37;9.88;;;;;;;23.12;36.18;101454.78;144992;589;6002;-85
2022/01/04 09:59:33;;;;;;;10.38;8.48;;;;;;;22.82;35.70;101462.09;144992;571;6002;-92
2022/01/04 10:02:30;;;;;;;9.20;8.30;;;;;;;22.61;36.56;101449.94;144992;592;6002;-89
2022/01/04 10:12:50;;;;;;;8.73;6.60;;;;;;;21.66;38.32;101435.53;144992;590;6002;-84
2022/01/04 10:15:40;;;;;;;5.80;4.15;;;;;;;21.85;38.37;101434.56;144992;644;6002;-92
2022/01/04 10:18:59;;;;;;;;;;;;;;;;;;;;;
2022/01/04 10:25:58;;;;;;;4.32;3.67;;;;;;;20.45;40.64;101429.59;144992;605;6004;-91
2022/01/04 10:28:33;;;;;;;5.15;4.15;;;;;;;20.52;41.75;101433.09;144992;590;6004;-91
2022/01/04 10:31:06;;;;;;;6.00;4.50;;;;;;;20.27;41.39;101419.94;144992;598;6004;-91
2022/01/04 10:33:34;;;;;;;3.87;3.58;;;;;;;20.41;41.27;101412.00;144992;678;6004;-90
2022/01/04 10:36:12;;;;;;;4.95;3.50;;;;;;;20.01;42.47;101420.78;144992;562;6004;-91
2022/01/04 10:39:08;;;;;;;5.43;3.83;;;;;;;20.44;41.56;101412.00;144992;568;6004;-93
2022/01/04 10:41:47;;;;;;;5.70;3.78;;;;;;;20.67;41.42;101397.97;144992;616;6002;-93
2022/01/04 10:44:57;;;;;;;5.75;3.30;;;;;;;20.90;41.10;101396.16;144992;579;6002;-86
2022/01/04 10:47:37;;;;;;;6.40;4.55;;;;;;;20.96;39.71;101385.59;144992;582;6004;-94
2022/01/04 10:50:39;;;;;;;;;;;;;;;;;;;;;
2022/01/04 10:54:00;;;;;;;;;;;;;;;;;;;;;
2022/01/04 10:57:21;;;;;;;4.95;4.15;;;;;;;20.68;40.66;101375.97;144992;613;6004;-95
2022/01/04 11:00:20;;;;;;;8.55;5.50;;;;;;;20.67;39.72;101367.19;144992;590;6004;-92
2022/01/04 11:02:48;;;;;;;6.35;5.07;;;;;;;21.00;40.35;101365.37;144992;580;6004;-94
2022/01/04 11:05:23;;;;;;;5.40;4.85;;;;;;;21.22;40.02;101360.88;144992;669;6004;-92
2022/01/04 11:08:00;;;;;;;16.00;10.80;;;;;;;21.30;40.24;101355.56;144992;597;6004;-92
2022/01/04 11:10:36;;;;;;;8.32;5.95;;;;;;;21.37;39.62;101354.66;144992;665;6004;-95
2022/01/04 11:13:05;;;;;;;7.93;6.47;;;;;;;21.25;39.93;101347.66;144992;620;6004;-90
2022/01/04 11:15:33;;;;;;;6.87;4.75;;;;;;;21.18;39.34;101340.66;144991;627;6000;-92
2022/01/04 11:18:50;;;;;;;5.75;4.50;;;;;;;21.06;39.47;101341.59;144992;583;6002;-95
2022/01/04 11:21:59;;;;;;;7.87;4.68;;;;;;;20.97;39.59;101344.25;144992;649;6002;-92
2022/01/04 11:24:52;;;;;;;8.35;4.47;;;;;;;21.00;39.43;101342.47;144992;629;6002;-90
2022/01/04 11:28:08;;;;;;;9.05;5.18;;;;;;;19.31;39.53;101339.75;144992;685;6004;-90
2022/01/04 11:31:33;;;;;;;;;;;;;;;;;;;;;
2022/01/04 11:34:19;;;;;;;12.30;7.50;;;;;;;19.98;40.15;101330.28;144992;567;6005;-90
2022/01/04 11:37:01;;;;;;;9.85;7.00;;;;;;;20.33;39.84;101334.66;144992;669;6004;-92
2022/01/04 11:43:23;;;;;;;;;;;;;;;;;;;;;
2022/01/04 11:46:00;;;;;;;7.50;5.30;;;;;;;20.82;39.69;101322.31;144992;663;6004;-89
2022/01/04 11:48:42;;;;;;;8.07;5.82;;;;;;;20.95;39.66;101319.62;144992;571;6004;-94
2022/01/04 11:51:42;;;;;;;9.32;6.05;;;;;;;21.02;39.64;101316.94;144992;571;6004;-84
2022/01/04 11:55:10;;;;;;;5.32;4.82;;;;;;;21.10;39.53;101310.78;144992;592;6002;-90
2022/01/04 11:57:53;;;;;;;4.87;4.28;;;;;;;21.22;39.66;101316.00;144992;716;6002;-91
2022/01/04 12:00:34;;;;;;;6.87;4.85;;;;;;;21.11;39.61;101312.50;144992;563;6002;-89
2022/01/04 12:03:36;;;;;;;5.87;4.55;;;;;;;21.13;39.80;101321.31;144992;563;6002;-89
2022/01/04 12:06:34;;;;;;;6.65;4.22;;;;;;;21.28;39.43;101312.44;144992;684;6004;-92
2022/01/04 12:09:29;;;;;;;7.20;4.57;;;;;;;21.35;39.61;101308.91;144992;583;6002;-93
2022/01/04 12:11:57;;;;;;;8.52;4.97;;;;;;;21.50;39.23;101305.31;144992;587;6004;-90
2022/01/04 12:14:25;;;;;;;4.10;3.62;;;;;;;21.62;38.92;101293.78;144992;589;6004;-88
2022/01/04 12:17:07;;;;;;;4.75;4.10;;;;;;;20.92;37.11;101288.84;144992;567;6004;-88
2022/01/04 12:19:48;;;;;;;5.87;4.20;;;;;;;21.37;38.87;101296.56;144992;654;6004;-91
2022/01/04 12:22:32;;;;;;;7.78;5.47;;;;;;;20.94;37.96;101286.22;144992;598;6004;-88
2022/01/04 12:25:08;;;;;;;8.80;4.62;;;;;;;21.08;37.16;101280.84;144992;635;6004;-92